sensor_id;sensor_type;location;lat;lon;timestamp;temperature;humidity
43320;DHT22;28914;48.722;9.332;2023-04-25T00:05:09;12.10;69.60
43320;DHT22;28914;48.722;9.332;2023-04-25T00:10:29;12.10;69.70
43320;DHT22;28914;48.722;9.332;2023-04-25T00:15:48;12.20;69.60
43320;DHT22;28914;48.722;9.332;2023-04-25T00:21:08;12.20;69.60
43320;DHT22;28914;48.722;9.332;2023-04-25T00:26:27;12.20;69.70
43320;DHT22;28914;48.722;9.332;2023-04-25T00:31:47;12.20;69.70
43320;DHT22;28914;48.722;9.332;2023-04-25T00:37:06;12.20;69.80
43320;DHT22;28914;48.722;9.332;2023-04-25T00:42:25;12.10;69.80
43320;DHT22;28914;48.722;9.332;2023-04-25T00:47:45;12.10;70.20
43320;DHT22;28914;48.722;9.332;2023-04-25T00:53:05;12.10;70.20
43320;DHT22;28914;48.722;9.332;2023-04-25T00:58:24;12.10;70.20
43320;DHT22;28914;48.722;9.332;2023-04-25T01:03:45;12.20;70.40
43320;DHT22;28914;48.722;9.332;2023-04-25T01:09:05;12.20;70.50
43320;DHT22;28914;48.722;9.332;2023-04-25T01:14:25;12.20;70.50
43320;DHT22;28914;48.722;9.332;2023-04-25T01:19:44;12.20;70.50
43320;DHT22;28914;48.722;9.332;2023-04-25T01:25:07;12.20;70.60
43320;DHT22;28914;48.722;9.332;2023-04-25T01:30:26;12.20;70.60
43320;DHT22;28914;48.722;9.332;2023-04-25T01:35:46;12.30;70.60
43320;DHT22;28914;48.722;9.332;2023-04-25T01:41:06;12.30;70.60
43320;DHT22;28914;48.722;9.332;2023-04-25T01:46:25;12.30;70.50
43320;DHT22;28914;48.722;9.332;2023-04-25T01:51:44;12.30;70.60
43320;DHT22;28914;48.722;9.332;2023-04-25T01:57:04;12.30;71.00
43320;DHT22;28914;48.722;9.332;2023-04-25T02:02:23;12.30;71.20
43320;DHT22;28914;48.722;9.332;2023-04-25T02:07:42;12.30;71.40
43320;DHT22;28914;48.722;9.332;2023-04-25T02:13:02;12.20;72.60
43320;DHT22;28914;48.722;9.332;2023-04-25T02:18:21;12.20;72.20
43320;DHT22;28914;48.722;9.332;2023-04-25T02:23:40;12.10;72.20
43320;DHT22;28914;48.722;9.332;2023-04-25T02:28:59;12.10;72.30
43320;DHT22;28914;48.722;9.332;2023-04-25T02:34:20;12.00;72.40
43320;DHT22;28914;48.722;9.332;2023-04-25T02:39:39;12.00;72.50
43320;DHT22;28914;48.722;9.332;2023-04-25T02:44:58;11.90;72.60
43320;DHT22;28914;48.722;9.332;2023-04-25T02:50:17;11.80;73.20
43320;DHT22;28914;48.722;9.332;2023-04-25T02:55:37;11.70;73.30
43320;DHT22;28914;48.722;9.332;2023-04-25T03:00:56;11.70;73.30
43320;DHT22;28914;48.722;9.332;2023-04-25T03:06:15;11.60;73.30
43320;DHT22;28914;48.722;9.332;2023-04-25T03:11:35;11.60;73.30
43320;DHT22;28914;48.722;9.332;2023-04-25T03:16:54;11.60;73.60
43320;DHT22;28914;48.722;9.332;2023-04-25T03:22:13;11.50;73.40
43320;DHT22;28914;48.722;9.332;2023-04-25T03:27:33;11.50;73.60
43320;DHT22;28914;48.722;9.332;2023-04-25T03:32:52;11.40;73.60
43320;DHT22;28914;48.722;9.332;2023-04-25T03:38:11;11.40;73.90
43320;DHT22;28914;48.722;9.332;2023-04-25T03:43:30;11.40;74.10
43320;DHT22;28914;48.722;9.332;2023-04-25T03:48:49;11.40;74.10
43320;DHT22;28914;48.722;9.332;2023-04-25T03:54:09;11.40;74.00
43320;DHT22;28914;48.722;9.332;2023-04-25T03:59:28;11.40;74.80
43320;DHT22;28914;48.722;9.332;2023-04-25T04:04:47;11.40;74.10
43320;DHT22;28914;48.722;9.332;2023-04-25T04:10:07;11.40;74.10
43320;DHT22;28914;48.722;9.332;2023-04-25T04:15:27;11.30;73.90
43320;DHT22;28914;48.722;9.332;2023-04-25T04:20:45;11.20;74.40
43320;DHT22;28914;48.722;9.332;2023-04-25T04:26:05;11.20;74.50
43320;DHT22;28914;48.722;9.332;2023-04-25T04:31:26;11.20;74.80
43320;DHT22;28914;48.722;9.332;2023-04-25T04:36:45;11.20;74.70
43320;DHT22;28914;48.722;9.332;2023-04-25T04:42:05;11.20;74.80
43320;DHT22;28914;48.722;9.332;2023-04-25T04:47:24;11.20;75.00
43320;DHT22;28914;48.722;9.332;2023-04-25T04:52:44;11.20;75.00
43320;DHT22;28914;48.722;9.332;2023-04-25T04:58:04;11.30;75.40
43320;DHT22;28914;48.722;9.332;2023-04-25T05:03:23;11.30;75.90
43320;DHT22;28914;48.722;9.332;2023-04-25T05:08:42;11.30;75.80
43320;DHT22;28914;48.722;9.332;2023-04-25T05:14:01;11.40;75.80
43320;DHT22;28914;48.722;9.332;2023-04-25T05:19:21;11.60;75.80
43320;DHT22;28914;48.722;9.332;2023-04-25T05:24:40;11.70;75.60
43320;DHT22;28914;48.722;9.332;2023-04-25T05:29:59;11.80;75.40
43320;DHT22;28914;48.722;9.332;2023-04-25T05:35:18;11.90;75.50
43320;DHT22;28914;48.722;9.332;2023-04-25T05:40:37;12.00;75.30
43320;DHT22;28914;48.722;9.332;2023-04-25T05:45:56;12.10;75.20
43320;DHT22;28914;48.722;9.332;2023-04-25T05:51:16;12.30;75.10
43320;DHT22;28914;48.722;9.332;2023-04-25T05:56:37;12.40;74.80
43320;DHT22;28914;48.722;9.332;2023-04-25T06:01:56;12.60;74.60
43320;DHT22;28914;48.722;9.332;2023-04-25T06:07:15;12.80;74.20
43320;DHT22;28914;48.722;9.332;2023-04-25T06:12:34;12.90;73.70
43320;DHT22;28914;48.722;9.332;2023-04-25T06:17:54;13.10;73.50
43320;DHT22;28914;48.722;9.332;2023-04-25T06:23:13;13.40;73.30
43320;DHT22;28914;48.722;9.332;2023-04-25T06:28:33;13.70;72.50
43320;DHT22;28914;48.722;9.332;2023-04-25T06:33:52;13.80;71.20
43320;DHT22;28914;48.722;9.332;2023-04-25T06:39:13;13.80;70.20
43320;DHT22;28914;48.722;9.332;2023-04-25T06:44:33;13.90;70.00
43320;DHT22;28914;48.722;9.332;2023-04-25T06:49:52;13.90;69.70
43320;DHT22;28914;48.722;9.332;2023-04-25T06:55:11;13.90;70.00
43320;DHT22;28914;48.722;9.332;2023-04-25T07:00:30;13.90;69.90
43320;DHT22;28914;48.722;9.332;2023-04-25T07:05:50;13.80;69.70
43320;DHT22;28914;48.722;9.332;2023-04-25T07:11:09;13.80;69.90
43320;DHT22;28914;48.722;9.332;2023-04-25T07:16:29;13.80;69.90
43320;DHT22;28914;48.722;9.332;2023-04-25T07:21:48;13.80;70.00
43320;DHT22;28914;48.722;9.332;2023-04-25T07:27:07;13.80;69.60
43320;DHT22;28914;48.722;9.332;2023-04-25T07:32:26;13.70;69.10
43320;DHT22;28914;48.722;9.332;2023-04-25T07:37:46;13.70;69.50
43320;DHT22;28914;48.722;9.332;2023-04-25T07:43:05;13.70;69.80
43320;DHT22;28914;48.722;9.332;2023-04-25T07:48:24;13.70;70.00
43320;DHT22;28914;48.722;9.332;2023-04-25T07:53:43;13.60;70.10
43320;DHT22;28914;48.722;9.332;2023-04-25T07:59:02;13.60;70.30
43320;DHT22;28914;48.722;9.332;2023-04-25T08:04:21;13.50;70.80
43320;DHT22;28914;48.722;9.332;2023-04-25T08:09:41;13.50;71.30
43320;DHT22;28914;48.722;9.332;2023-04-25T08:15:00;13.50;71.70
43320;DHT22;28914;48.722;9.332;2023-04-25T08:20:19;13.50;71.90
43320;DHT22;28914;48.722;9.332;2023-04-25T08:25:38;13.50;72.10
43320;DHT22;28914;48.722;9.332;2023-04-25T08:30:58;13.50;72.20
43320;DHT22;28914;48.722;9.332;2023-04-25T08:36:17;13.50;72.50
43320;DHT22;28914;48.722;9.332;2023-04-25T08:41:37;13.50;72.50
43320;DHT22;28914;48.722;9.332;2023-04-25T08:46:57;13.50;72.50
43320;DHT22;28914;48.722;9.332;2023-04-25T08:52:24;13.40;72.40
43320;DHT22;28914;48.722;9.332;2023-04-25T08:57:46;13.40;72.80
43320;DHT22;28914;48.722;9.332;2023-04-25T09:03:06;13.30;73.00
43320;DHT22;28914;48.722;9.332;2023-04-25T09:08:25;13.30;72.90
43320;DHT22;28914;48.722;9.332;2023-04-25T09:13:45;13.20;73.50
43320;DHT22;28914;48.722;9.332;2023-04-25T09:19:04;13.20;73.70
43320;DHT22;28914;48.722;9.332;2023-04-25T09:24:53;13.30;74.10
43320;DHT22;28914;48.722;9.332;2023-04-25T09:30:15;13.40;74.60
43320;DHT22;28914;48.722;9.332;2023-04-25T09:35:39;13.50;74.60
43320;DHT22;28914;48.722;9.332;2023-04-25T09:40:59;13.70;74.60
43320;DHT22;28914;48.722;9.332;2023-04-25T09:46:19;13.80;73.90
43320;DHT22;28914;48.722;9.332;2023-04-25T09:51:39;13.80;73.50
43320;DHT22;28914;48.722;9.332;2023-04-25T10:02:38;13.70;72.90
43320;DHT22;28914;48.722;9.332;2023-04-25T10:08:03;13.60;73.60
43320;DHT22;28914;48.722;9.332;2023-04-25T10:13:25;13.50;73.40
43320;DHT22;28914;48.722;9.332;2023-04-25T10:18:45;13.50;73.60
43320;DHT22;28914;48.722;9.332;2023-04-25T10:24:05;13.50;73.80
43320;DHT22;28914;48.722;9.332;2023-04-25T10:29:25;13.40;74.00
43320;DHT22;28914;48.722;9.332;2023-04-25T10:34:45;13.40;74.00
43320;DHT22;28914;48.722;9.332;2023-04-25T10:40:11;13.40;73.80
43320;DHT22;28914;48.722;9.332;2023-04-25T10:45:50;13.20;73.50
43320;DHT22;28914;48.722;9.332;2023-04-25T10:51:12;13.10;73.50
43320;DHT22;28914;48.722;9.332;2023-04-25T10:56:37;12.90;73.50
43320;DHT22;28914;48.722;9.332;2023-04-25T11:01:58;12.80;74.00
43320;DHT22;28914;48.722;9.332;2023-04-25T11:07:33;12.80;74.50
43320;DHT22;28914;48.722;9.332;2023-04-25T11:12:54;12.80;74.40
43320;DHT22;28914;48.722;9.332;2023-04-25T11:18:16;12.80;74.50
43320;DHT22;28914;48.722;9.332;2023-04-25T11:23:35;12.90;75.00
43320;DHT22;28914;48.722;9.332;2023-04-25T11:28:59;12.90;75.00
43320;DHT22;28914;48.722;9.332;2023-04-25T11:34:19;12.90;75.00
43320;DHT22;28914;48.722;9.332;2023-04-25T11:39:42;12.80;74.40
43320;DHT22;28914;48.722;9.332;2023-04-25T11:45:01;12.70;74.40
43320;DHT22;28914;48.722;9.332;2023-04-25T11:50:21;12.70;74.40
43320;DHT22;28914;48.722;9.332;2023-04-25T11:55:40;12.70;74.40
43320;DHT22;28914;48.722;9.332;2023-04-25T12:01:00;12.70;74.60
43320;DHT22;28914;48.722;9.332;2023-04-25T12:06:19;12.90;75.00
43320;DHT22;28914;48.722;9.332;2023-04-25T12:11:42;13.10;74.60
43320;DHT22;28914;48.722;9.332;2023-04-25T12:17:03;13.30;74.00
43320;DHT22;28914;48.722;9.332;2023-04-25T12:22:23;13.40;73.50
43320;DHT22;28914;48.722;9.332;2023-04-25T12:27:42;13.60;74.10
43320;DHT22;28914;48.722;9.332;2023-04-25T12:33:02;13.80;74.50
43320;DHT22;28914;48.722;9.332;2023-04-25T12:38:26;14.00;73.90
43320;DHT22;28914;48.722;9.332;2023-04-25T12:43:46;14.20;74.00
43320;DHT22;28914;48.722;9.332;2023-04-25T12:49:05;14.40;73.30
43320;DHT22;28914;48.722;9.332;2023-04-25T12:54:26;14.60;72.60
43320;DHT22;28914;48.722;9.332;2023-04-25T12:59:45;14.70;72.00
43320;DHT22;28914;48.722;9.332;2023-04-25T13:05:04;14.80;71.10
43320;DHT22;28914;48.722;9.332;2023-04-25T13:10:23;14.70;71.10
43320;DHT22;28914;48.722;9.332;2023-04-25T13:15:43;14.80;71.30
43320;DHT22;28914;48.722;9.332;2023-04-25T13:21:02;14.90;71.90
43320;DHT22;28914;48.722;9.332;2023-04-25T13:26:22;15.10;70.50
43320;DHT22;28914;48.722;9.332;2023-04-25T13:31:41;15.40;70.10
43320;DHT22;28914;48.722;9.332;2023-04-25T13:37:01;15.60;70.10
43320;DHT22;28914;48.722;9.332;2023-04-25T13:42:20;15.70;69.30
43320;DHT22;28914;48.722;9.332;2023-04-25T13:47:40;15.70;68.70
43320;DHT22;28914;48.722;9.332;2023-04-25T13:52:59;15.50;68.20
43320;DHT22;28914;48.722;9.332;2023-04-25T13:58:18;15.50;68.70
43320;DHT22;28914;48.722;9.332;2023-04-25T14:03:39;15.60;68.30
43320;DHT22;28914;48.722;9.332;2023-04-25T14:08:58;15.70;68.70
43320;DHT22;28914;48.722;9.332;2023-04-25T14:14:20;15.90;67.60
43320;DHT22;28914;48.722;9.332;2023-04-25T14:19:39;16.00;67.20
43320;DHT22;28914;48.722;9.332;2023-04-25T14:25:02;16.10;67.10
43320;DHT22;28914;48.722;9.332;2023-04-25T14:30:22;16.10;67.90
43320;DHT22;28914;48.722;9.332;2023-04-25T14:35:41;16.20;68.00
43320;DHT22;28914;48.722;9.332;2023-04-25T14:41:00;16.30;68.10
43320;DHT22;28914;48.722;9.332;2023-04-25T14:46:20;16.30;67.90
43320;DHT22;28914;48.722;9.332;2023-04-25T14:51:40;16.30;67.90
43320;DHT22;28914;48.722;9.332;2023-04-25T14:56:59;16.30;67.40
43320;DHT22;28914;48.722;9.332;2023-04-25T15:02:19;16.30;67.20
43320;DHT22;28914;48.722;9.332;2023-04-25T15:07:38;16.20;66.80
43320;DHT22;28914;48.722;9.332;2023-04-25T15:12:58;16.20;66.20
43320;DHT22;28914;48.722;9.332;2023-04-25T15:18:19;16.00;66.20
43320;DHT22;28914;48.722;9.332;2023-04-25T15:23:40;15.90;66.60
43320;DHT22;28914;48.722;9.332;2023-04-25T15:29:00;15.80;67.10
43320;DHT22;28914;48.722;9.332;2023-04-25T15:34:19;15.80;67.10
43320;DHT22;28914;48.722;9.332;2023-04-25T15:39:38;15.80;67.60
43320;DHT22;28914;48.722;9.332;2023-04-25T15:44:57;15.90;67.00
43320;DHT22;28914;48.722;9.332;2023-04-25T15:50:17;15.80;66.00
43320;DHT22;28914;48.722;9.332;2023-04-25T15:55:36;15.80;65.60
43320;DHT22;28914;48.722;9.332;2023-04-25T16:00:56;15.70;66.10
43320;DHT22;28914;48.722;9.332;2023-04-25T16:06:15;15.60;65.80
43320;DHT22;28914;48.722;9.332;2023-04-25T16:11:34;15.50;66.20
43320;DHT22;28914;48.722;9.332;2023-04-25T16:16:54;15.40;66.70
43320;DHT22;28914;48.722;9.332;2023-04-25T16:22:13;15.30;66.70
43320;DHT22;28914;48.722;9.332;2023-04-25T16:27:35;15.20;66.70
43320;DHT22;28914;48.722;9.332;2023-04-25T16:32:56;15.20;67.10
43320;DHT22;28914;48.722;9.332;2023-04-25T16:38:15;15.10;66.90
43320;DHT22;28914;48.722;9.332;2023-04-25T16:43:34;15.00;67.50
43320;DHT22;28914;48.722;9.332;2023-04-25T16:48:53;14.90;67.90
43320;DHT22;28914;48.722;9.332;2023-04-25T16:54:13;14.80;68.40
43320;DHT22;28914;48.722;9.332;2023-04-25T16:59:32;14.70;68.50
43320;DHT22;28914;48.722;9.332;2023-04-25T17:04:51;14.60;68.80
43320;DHT22;28914;48.722;9.332;2023-04-25T17:10:10;14.50;68.70
43320;DHT22;28914;48.722;9.332;2023-04-25T17:15:29;14.40;68.60
43320;DHT22;28914;48.722;9.332;2023-04-25T17:20:48;14.30;68.70
43320;DHT22;28914;48.722;9.332;2023-04-25T17:26:08;14.20;69.00
43320;DHT22;28914;48.722;9.332;2023-04-25T17:31:27;14.10;69.50
43320;DHT22;28914;48.722;9.332;2023-04-25T17:36:46;14.00;70.00
43320;DHT22;28914;48.722;9.332;2023-04-25T17:42:06;14.00;70.30
43320;DHT22;28914;48.722;9.332;2023-04-25T17:47:25;13.90;70.20
43320;DHT22;28914;48.722;9.332;2023-04-25T17:52:45;13.80;70.10
43320;DHT22;28914;48.722;9.332;2023-04-25T17:58:06;13.80;70.20
43320;DHT22;28914;48.722;9.332;2023-04-25T18:03:25;13.70;70.10
43320;DHT22;28914;48.722;9.332;2023-04-25T18:08:45;13.60;70.10
43320;DHT22;28914;48.722;9.332;2023-04-25T18:14:04;13.50;69.80
43320;DHT22;28914;48.722;9.332;2023-04-25T18:19:24;13.40;70.20
43320;DHT22;28914;48.722;9.332;2023-04-25T18:24:43;13.30;71.00
43320;DHT22;28914;48.722;9.332;2023-04-25T18:30:07;13.10;71.00
43320;DHT22;28914;48.722;9.332;2023-04-25T18:35:27;13.00;71.50
43320;DHT22;28914;48.722;9.332;2023-04-25T18:40:46;12.80;71.30
43320;DHT22;28914;48.722;9.332;2023-04-25T18:46:06;12.60;71.30
43320;DHT22;28914;48.722;9.332;2023-04-25T18:51:27;12.50;71.70
43320;DHT22;28914;48.722;9.332;2023-04-25T18:56:49;12.40;72.00
43320;DHT22;28914;48.722;9.332;2023-04-25T19:02:09;12.30;72.30
43320;DHT22;28914;48.722;9.332;2023-04-25T19:07:28;12.20;72.70
43320;DHT22;28914;48.722;9.332;2023-04-25T19:12:49;12.10;73.10
43320;DHT22;28914;48.722;9.332;2023-04-25T19:18:08;12.10;73.50
43320;DHT22;28914;48.722;9.332;2023-04-25T19:23:27;12.10;73.80
43320;DHT22;28914;48.722;9.332;2023-04-25T19:29:11;12.10;74.00
43320;DHT22;28914;48.722;9.332;2023-04-25T19:34:32;12.10;74.60
43320;DHT22;28914;48.722;9.332;2023-04-25T19:39:51;12.00;74.50
43320;DHT22;28914;48.722;9.332;2023-04-25T19:45:10;12.00;74.70
43320;DHT22;28914;48.722;9.332;2023-04-25T19:50:30;11.90;74.80
43320;DHT22;28914;48.722;9.332;2023-04-25T19:55:50;11.90;74.90
43320;DHT22;28914;48.722;9.332;2023-04-25T20:01:10;11.90;75.00
43320;DHT22;28914;48.722;9.332;2023-04-25T20:06:29;11.90;75.20
43320;DHT22;28914;48.722;9.332;2023-04-25T20:11:48;11.90;75.20
43320;DHT22;28914;48.722;9.332;2023-04-25T20:17:07;11.80;75.30
43320;DHT22;28914;48.722;9.332;2023-04-25T20:22:29;11.80;75.50
43320;DHT22;28914;48.722;9.332;2023-04-25T20:27:53;11.80;75.60
43320;DHT22;28914;48.722;9.332;2023-04-25T20:33:13;11.80;75.70
43320;DHT22;28914;48.722;9.332;2023-04-25T20:38:32;11.80;76.00
43320;DHT22;28914;48.722;9.332;2023-04-25T20:43:52;11.70;76.20
43320;DHT22;28914;48.722;9.332;2023-04-25T20:49:11;11.70;76.40
43320;DHT22;28914;48.722;9.332;2023-04-25T20:54:31;11.70;76.50
43320;DHT22;28914;48.722;9.332;2023-04-25T20:59:50;11.80;76.70
43320;DHT22;28914;48.722;9.332;2023-04-25T21:05:10;11.80;76.70
43320;DHT22;28914;48.722;9.332;2023-04-25T21:10:29;11.80;77.70
43320;DHT22;28914;48.722;9.332;2023-04-25T21:15:49;11.80;77.00
43320;DHT22;28914;48.722;9.332;2023-04-25T21:21:09;11.70;77.00
43320;DHT22;28914;48.722;9.332;2023-04-25T21:26:28;11.70;77.00
43320;DHT22;28914;48.722;9.332;2023-04-25T21:31:49;11.70;77.00
43320;DHT22;28914;48.722;9.332;2023-04-25T21:37:09;11.70;77.20
43320;DHT22;28914;48.722;9.332;2023-04-25T21:42:28;11.70;77.30
43320;DHT22;28914;48.722;9.332;2023-04-25T21:47:47;11.60;77.50
43320;DHT22;28914;48.722;9.332;2023-04-25T21:53:06;11.60;77.60
43320;DHT22;28914;48.722;9.332;2023-04-25T21:58:26;11.60;78.60
43320;DHT22;28914;48.722;9.332;2023-04-25T22:03:45;11.60;77.90
43320;DHT22;28914;48.722;9.332;2023-04-25T22:09:04;11.50;78.00
43320;DHT22;28914;48.722;9.332;2023-04-25T22:14:23;11.50;78.10
43320;DHT22;28914;48.722;9.332;2023-04-25T22:19:43;11.60;78.30
43320;DHT22;28914;48.722;9.332;2023-04-25T22:25:02;11.50;78.40
43320;DHT22;28914;48.722;9.332;2023-04-25T22:30:21;11.50;78.40
43320;DHT22;28914;48.722;9.332;2023-04-25T22:35:41;11.50;78.50
43320;DHT22;28914;48.722;9.332;2023-04-25T22:41:00;11.50;78.50
43320;DHT22;28914;48.722;9.332;2023-04-25T22:46:20;11.40;78.60
43320;DHT22;28914;48.722;9.332;2023-04-25T22:51:39;11.40;78.80
43320;DHT22;28914;48.722;9.332;2023-04-25T22:56:58;11.40;78.80
43320;DHT22;28914;48.722;9.332;2023-04-25T23:02:17;11.30;78.90
43320;DHT22;28914;48.722;9.332;2023-04-25T23:07:37;11.30;79.00
43320;DHT22;28914;48.722;9.332;2023-04-25T23:12:56;11.30;78.90
43320;DHT22;28914;48.722;9.332;2023-04-25T23:18:18;11.30;79.20
43320;DHT22;28914;48.722;9.332;2023-04-25T23:23:37;11.20;79.20
43320;DHT22;28914;48.722;9.332;2023-04-25T23:28:56;11.20;79.40
43320;DHT22;28914;48.722;9.332;2023-04-25T23:34:15;11.20;79.50
43320;DHT22;28914;48.722;9.332;2023-04-25T23:39:35;11.20;79.50
43320;DHT22;28914;48.722;9.332;2023-04-25T23:44:54;11.10;79.50
43320;DHT22;28914;48.722;9.332;2023-04-25T23:50:13;11.10;79.50
43320;DHT22;28914;48.722;9.332;2023-04-25T23:55:32;11.10;79.50
